TimePST,TemperatureF,Dew PointF,Humidity,Sea Level PressureIn,VisibilityMPH,Wind Direction,Wind SpeedMPH,Gust SpeedMPH,PrecipitationIn,Events,Conditions,WindDirDegrees,DateUTC
12:55 AM,32.0,21.0,64,29.83,10.0,NW,9.2,-,N/A,,Scattered Clouds,310,2013-01-10 08:55:00
1:55 AM,34.0,21.0,59,29.84,10.0,WNW,11.5,-,N/A,,Overcast,290,2013-01-10 09:55:00
2:55 AM,30.9,21.0,67,29.86,10.0,West,8.1,-,N/A,,Mostly Cloudy,280,2013-01-10 10:55:00
3:55 AM,30.0,19.0,64,29.87,10.0,WNW,11.5,-,N/A,,Clear,300,2013-01-10 11:55:00
4:55 AM,30.9,19.0,61,29.87,10.0,NW,5.8,-,N/A,,Scattered Clouds,320,2013-01-10 12:55:00
5:55 AM,30.0,19.0,64,29.88,10.0,WNW,8.1,-,N/A,,Mostly Cloudy,300,2013-01-10 13:55:00
6:55 AM,28.9,18.0,64,29.91,10.0,NNW,4.6,-,N/A,,Overcast,340,2013-01-10 14:55:00
7:55 AM,32.0,19.0,59,29.93,10.0,NW,4.6,-,N/A,,Mostly Cloudy,310,2013-01-10 15:55:00
8:55 AM,30.9,19.0,61,29.95,10.0,West,3.5,-,N/A,,Partly Cloudy,280,2013-01-10 16:55:00
9:55 AM,32.0,19.9,61,29.96,10.0,Calm,Calm,-,N/A,,Clear,0,2013-01-10 17:55:00
10:55 AM,34.0,19.9,56,29.95,10.0,WNW,8.1,-,N/A,,Clear,300,2013-01-10 18:55:00
11:55 AM,36.0,21.0,55,29.93,10.0,NW,8.1,-,N/A,,Clear,310,2013-01-10 19:55:00
12:55 PM,37.0,19.9,50,29.92,10.0,Calm,Calm,-,N/A,,Clear,0,2013-01-10 20:55:00
1:55 PM,36.0,21.9,57,29.92,10.0,SE,5.8,-,N/A,,Clear,140,2013-01-10 21:55:00
2:55 PM,35.1,21.0,57,29.93,10.0,SE,10.4,-,N/A,,Clear,140,2013-01-10 22:55:00
3:55 PM,33.1,19.0,56,29.95,10.0,SE,8.1,-,N/A,,Clear,130,2013-01-10 23:55:00
4:55 PM,32.0,17.1,54,29.96,10.0,ESE,8.1,-,N/A,,Clear,120,2013-01-11 00:55:00
5:55 PM,28.9,17.1,61,29.98,10.0,SE,11.5,-,N/A,,Clear,130,2013-01-11 01:55:00
6:55 PM,28.9,15.1,56,29.99,10.0,SE,9.2,-,N/A,,Clear,130,2013-01-11 02:55:00
7:55 PM,28.0,14.0,56,30.00,10.0,ESE,5.8,-,N/A,,Partly Cloudy,110,2013-01-11 03:55:00
8:55 PM,26.1,12.9,58,30.01,10.0,SE,5.8,-,N/A,,Clear,140,2013-01-11 04:55:00
9:55 PM,25.0,14.0,63,30.02,10.0,NE,3.5,-,N/A,,Clear,40,2013-01-11 05:55:00
10:55 PM,24.1,12.9,62,30.03,10.0,Calm,Calm,-,N/A,,Clear,0,2013-01-11 06:55:00
11:55 PM,21.9,12.9,68,30.04,10.0,Calm,Calm,-,N/A,,Clear,0,2013-01-11 07:55:00